createdAt,value
2023-12-04T00:00:43.431Z,9.63
2023-12-04T00:03:11.591Z,9.97
2023-12-04T00:05:47.062Z,9.83
2023-12-04T00:08:25.525Z,9.73
2023-12-04T00:10:56.591Z,10.50
2023-12-04T00:13:26.214Z,10.50
2023-12-04T00:16:14.613Z,9.97
2023-12-04T00:18:45.381Z,9.97
2023-12-04T00:21:17.158Z,10.37
2023-12-04T00:23:46.020Z,10.23
2023-12-04T00:26:22.896Z,10.27
2023-12-04T00:29:00.515Z,9.10
2023-12-04T00:31:44.158Z,11.00
2023-12-04T00:34:22.821Z,9.40
2023-12-04T00:36:56.337Z,9.23
2023-12-04T00:39:29.576Z,10.07
2023-12-04T00:41:58.218Z,10.20
2023-12-04T00:44:27.936Z,10.03
2023-12-04T00:47:12.194Z,9.23
2023-12-04T00:49:42.856Z,10.97
2023-12-04T00:52:13.404Z,11.50
2023-12-04T00:54:42.429Z,10.60
2023-12-04T00:59:55.630Z,10.80
2023-12-04T01:02:28.565Z,12.57
2023-12-04T01:04:56.979Z,12.07
2023-12-04T01:07:28.543Z,12.43
2023-12-04T01:10:03.250Z,12.33
2023-12-04T01:12:35.572Z,12.70
2023-12-04T01:15:07.743Z,12.17
2023-12-04T01:17:49.750Z,12.33
2023-12-04T01:20:18.243Z,12.70
2023-12-04T01:22:53.654Z,13.60
2023-12-04T01:25:23.120Z,11.70
2023-12-04T01:27:53.703Z,11.90
2023-12-04T01:30:26.426Z,13.97
2023-12-04T01:33:01.606Z,13.70
2023-12-04T01:35:33.365Z,14.57
2023-12-04T01:38:03.373Z,13.80
2023-12-04T01:40:34.470Z,12.60
2023-12-04T01:43:06.890Z,13.73
2023-12-04T01:45:38.480Z,13.17
2023-12-04T01:48:21.416Z,12.93
2023-12-04T01:50:55.881Z,13.03
2023-12-04T01:53:26.347Z,13.00
2023-12-04T01:55:59.181Z,13.80
2023-12-04T01:58:31.920Z,13.60
2023-12-04T02:01:07.123Z,13.07
2023-12-04T02:03:43.151Z,12.83
2023-12-04T02:06:12.946Z,13.80
2023-12-04T02:08:44.769Z,12.30
2023-12-04T02:11:13.254Z,13.47
2023-12-04T02:13:45.125Z,12.80
2023-12-04T02:16:17.554Z,14.67
2023-12-04T02:18:56.345Z,13.77
2023-12-04T02:21:26.615Z,14.30
2023-12-04T02:24:10.561Z,14.93
2023-12-04T02:26:47.294Z,14.60
2023-12-04T02:29:22.050Z,14.43
2023-12-04T02:32:03.225Z,15.73
2023-12-04T02:34:37.617Z,15.73
2023-12-04T02:37:08.037Z,15.67
2023-12-04T02:39:46.050Z,14.33
2023-12-04T02:42:18.691Z,16.40
2023-12-04T02:44:49.616Z,16.50
2023-12-04T02:47:27.321Z,15.30
2023-12-04T02:49:59.754Z,15.90
2023-12-04T02:52:28.405Z,16.37
2023-12-04T02:55:02.606Z,16.03
2023-12-04T02:57:34.303Z,17.37
2023-12-04T03:00:08.132Z,18.30
2023-12-04T03:02:44.806Z,17.20
2023-12-04T03:05:14.371Z,16.60
2023-12-04T03:10:31.444Z,18.00
2023-12-04T03:13:04.841Z,18.10
2023-12-04T03:15:35.749Z,16.57
2023-12-04T03:18:08.211Z,17.53
2023-12-04T03:20:46.875Z,16.70
2023-12-04T03:23:17.773Z,16.70
2023-12-04T03:25:59.366Z,15.90
2023-12-04T03:28:30.307Z,16.67
2023-12-04T03:31:04.037Z,16.87
2023-12-04T03:33:34.681Z,16.13
2023-12-04T03:36:09.142Z,17.47
2023-12-04T03:38:40.591Z,17.13
2023-12-04T03:41:17.336Z,16.40
2023-12-04T03:43:48.640Z,17.20
2023-12-04T03:46:19.435Z,18.73
2023-12-04T03:48:49.312Z,17.00
2023-12-04T03:51:26.569Z,16.63
2023-12-04T03:53:57.561Z,16.30
2023-12-04T03:56:32.205Z,16.13
2023-12-04T03:59:03.577Z,15.70
2023-12-04T04:01:37.633Z,15.00
2023-12-04T04:04:19.581Z,14.60
2023-12-04T04:06:53.962Z,15.20
2023-12-04T04:09:29.058Z,16.00
2023-12-04T04:12:08.638Z,14.50
2023-12-04T04:14:38.471Z,15.10
2023-12-04T04:17:06.565Z,14.50
2023-12-04T04:19:35.318Z,14.53
2023-12-04T04:22:06.205Z,16.20
2023-12-04T04:24:40.184Z,13.87
2023-12-04T04:27:14.032Z,14.27
2023-12-04T04:29:51.740Z,12.73
2023-12-04T04:32:25.811Z,14.60
2023-12-04T04:34:56.547Z,14.13
2023-12-04T04:37:27.783Z,16.13
2023-12-04T04:40:04.390Z,15.37
2023-12-04T04:42:43.400Z,15.27
2023-12-04T04:45:13.404Z,14.93
2023-12-04T04:47:58.288Z,15.10
2023-12-04T04:50:35.339Z,14.00
2023-12-04T04:53:04.535Z,14.60
2023-12-04T04:55:47.092Z,15.83
2023-12-04T04:58:26.077Z,14.50
2023-12-04T05:00:55.626Z,14.47
2023-12-04T05:03:26.717Z,13.30
2023-12-04T05:06:02.914Z,14.00
2023-12-04T05:08:39.511Z,13.30
2023-12-04T05:11:08.703Z,14.23
2023-12-04T05:13:46.692Z,13.43
2023-12-04T05:16:16.621Z,13.57
2023-12-04T05:18:50.459Z,11.13
2023-12-04T05:21:22.295Z,11.90
2023-12-04T05:23:51.597Z,11.77
2023-12-04T05:26:21.015Z,12.80
2023-12-04T05:28:55.515Z,12.13
2023-12-04T05:31:27.728Z,11.50
2023-12-04T05:34:19.541Z,15.07
2023-12-04T05:36:54.138Z,18.47
2023-12-04T05:39:24.938Z,17.83
2023-12-04T05:41:54.436Z,18.03
2023-12-04T05:44:33.218Z,14.00
2023-12-04T05:47:03.594Z,14.10
2023-12-04T05:49:34.528Z,14.20
2023-12-04T05:52:09.042Z,20.47
2023-12-04T05:54:40.775Z,20.70
2023-12-04T05:57:10.954Z,17.90
2023-12-04T05:59:48.667Z,17.80
2023-12-04T06:02:22.924Z,18.47
2023-12-04T06:04:59.750Z,24.93
2023-12-04T06:07:32.548Z,20.07
2023-12-04T06:10:09.793Z,16.80
2023-12-04T06:12:39.900Z,12.40
2023-12-04T06:15:21.532Z,11.47
2023-12-04T06:17:52.501Z,11.80
2023-12-04T06:20:27.196Z,12.60
2023-12-04T06:23:02.666Z,12.40
2023-12-04T06:25:42.472Z,12.67
2023-12-04T06:28:14.176Z,12.47
2023-12-04T06:31:02.196Z,13.93
2023-12-04T06:33:39.233Z,12.20
2023-12-04T06:36:09.792Z,17.43
2023-12-04T06:38:42.131Z,14.73
2023-12-04T06:41:16.055Z,12.40
2023-12-04T06:43:53.700Z,13.93
2023-12-04T06:46:26.671Z,12.93
2023-12-04T06:49:07.344Z,12.53
2023-12-04T06:51:49.701Z,15.87
2023-12-04T06:54:20.148Z,18.43
2023-12-04T06:56:50.685Z,15.80
2023-12-04T06:59:25.883Z,15.10
2023-12-04T07:02:00.920Z,17.57
2023-12-04T07:04:29.794Z,18.20
2023-12-04T07:07:06.018Z,16.57
2023-12-04T07:09:38.213Z,15.63
2023-12-04T07:12:09.623Z,15.87
2023-12-04T07:14:46.813Z,13.43
2023-12-04T07:17:17.777Z,13.77
2023-12-04T07:19:52.984Z,13.37
2023-12-04T07:22:26.228Z,13.53
2023-12-04T07:25:15.809Z,13.80
2023-12-04T07:27:47.002Z,13.97
2023-12-04T07:30:19.490Z,13.33
2023-12-04T07:33:06.366Z,13.17
2023-12-04T07:35:44.308Z,13.00
2023-12-04T07:38:16.465Z,12.70
2023-12-04T07:40:48.306Z,13.47
2023-12-04T07:43:17.915Z,11.57
2023-12-04T07:45:55.014Z,12.63
2023-12-04T07:48:28.567Z,13.07
2023-12-04T07:51:01.405Z,12.90
2023-12-04T07:53:31.067Z,12.57
2023-12-04T07:56:04.499Z,12.23
2023-12-04T07:58:41.971Z,12.83
2023-12-04T08:01:16.389Z,13.40
2023-12-04T08:03:50.470Z,13.50
2023-12-04T08:06:21.999Z,14.17
2023-12-04T08:09:03.612Z,13.73
2023-12-04T08:11:39.993Z,13.93
2023-12-04T08:14:13.396Z,14.17
2023-12-04T08:16:42.489Z,13.10
2023-12-04T08:19:14.702Z,15.10
2023-12-04T08:21:44.152Z,14.07
2023-12-04T08:24:22.932Z,13.83
2023-12-04T08:26:57.719Z,15.03
2023-12-04T08:29:35.802Z,14.70
2023-12-04T08:32:12.540Z,14.10
2023-12-04T08:34:56.608Z,14.80
2023-12-04T08:37:29.455Z,14.40
2023-12-04T08:39:59.110Z,16.20
2023-12-04T08:42:36.314Z,14.90
2023-12-04T08:45:16.938Z,15.60
2023-12-04T08:47:51.140Z,13.90
2023-12-04T08:50:23.624Z,14.67
2023-12-04T08:52:54.412Z,14.43
2023-12-04T08:55:23.026Z,15.30
2023-12-04T08:58:00.555Z,15.27
2023-12-04T09:00:39.843Z,16.33
2023-12-04T09:03:18.460Z,16.67
2023-12-04T09:06:09.754Z,16.13
2023-12-04T09:11:26.239Z,16.07
2023-12-04T09:13:59.190Z,15.63
2023-12-04T09:16:29.973Z,16.13
2023-12-04T09:18:59.255Z,15.57
2023-12-04T09:21:31.478Z,16.53
2023-12-04T09:24:06.505Z,15.17
2023-12-04T09:26:37.113Z,16.33
2023-12-04T09:29:10.697Z,16.43
2023-12-04T09:31:39.559Z,16.03
2023-12-04T09:34:09.268Z,17.40
2023-12-04T09:36:42.048Z,15.47
2023-12-04T09:39:17.766Z,15.77
2023-12-04T09:41:52.145Z,17.03
2023-12-04T09:44:23.368Z,14.30
2023-12-04T09:46:51.728Z,14.17
2023-12-04T09:49:26.891Z,13.00
2023-12-04T09:51:59.985Z,12.70
2023-12-04T09:54:32.578Z,13.13
2023-12-04T09:57:02.050Z,12.93
2023-12-04T09:59:34.641Z,11.10
2023-12-04T10:02:08.792Z,12.03
2023-12-04T10:04:45.649Z,12.80
2023-12-04T10:07:22.564Z,12.73
2023-12-04T10:09:56.777Z,13.10
2023-12-04T10:12:28.487Z,12.27
2023-12-04T10:15:13.115Z,12.00
2023-12-04T10:17:53.695Z,12.67
2023-12-04T10:20:26.733Z,12.53
2023-12-04T10:23:02.695Z,12.10
2023-12-04T10:25:44.624Z,12.50
2023-12-04T10:28:16.120Z,11.63
2023-12-04T10:30:48.017Z,12.40
2023-12-04T10:33:17.086Z,12.80
2023-12-04T10:35:50.529Z,12.87
2023-12-04T10:38:20.938Z,11.97
2023-12-04T10:40:52.780Z,12.33
2023-12-04T10:43:23.169Z,12.77
2023-12-04T10:45:52.912Z,12.17
2023-12-04T10:48:28.103Z,11.93
2023-12-04T10:50:59.456Z,12.77
2023-12-04T10:53:31.561Z,12.20
2023-12-04T10:56:11.731Z,12.90
2023-12-04T10:58:42.356Z,12.47
2023-12-04T11:01:15.938Z,12.93
2023-12-04T11:03:47.546Z,13.10
2023-12-04T11:06:21.538Z,13.57
2023-12-04T11:08:53.365Z,12.10
2023-12-04T11:11:28.129Z,12.23
2023-12-04T11:14:01.663Z,11.57
2023-12-04T11:16:38.712Z,10.70
2023-12-04T11:19:21.731Z,12.00
2023-12-04T11:21:52.887Z,12.10
2023-12-04T11:24:27.629Z,11.67
2023-12-04T11:26:57.781Z,11.90
2023-12-04T11:29:38.907Z,10.90
2023-12-04T11:32:08.123Z,11.40
2023-12-04T11:34:38.127Z,9.90
2023-12-04T11:40:00.491Z,10.03
2023-12-04T11:42:39.838Z,10.03
2023-12-04T11:45:16.652Z,10.33
2023-12-04T11:48:07.921Z,9.90
2023-12-04T11:50:45.852Z,9.10
2023-12-04T11:53:19.310Z,10.00
2023-12-04T11:56:00.493Z,11.17
2023-12-04T11:58:31.346Z,9.60
2023-12-04T12:01:03.047Z,8.73
2023-12-04T12:03:39.452Z,7.87
2023-12-04T12:06:22.521Z,8.93
2023-12-04T12:08:52.715Z,8.47
2023-12-04T12:11:29.820Z,9.63
2023-12-04T12:14:06.766Z,9.10
2023-12-04T12:16:42.458Z,8.70
2023-12-04T12:19:20.267Z,8.63
2023-12-04T12:21:50.555Z,9.60
2023-12-04T12:24:20.458Z,9.63
2023-12-04T12:26:52.621Z,8.80
2023-12-04T12:29:26.507Z,9.40
2023-12-04T12:31:57.485Z,8.27
2023-12-04T12:34:28.715Z,8.40
2023-12-04T12:36:56.985Z,9.70
2023-12-04T12:39:27.928Z,10.17
2023-12-04T12:42:00.500Z,9.00
2023-12-04T12:44:31.482Z,10.37
2023-12-04T12:47:02.162Z,8.60
2023-12-04T12:49:39.183Z,9.43
2023-12-04T12:52:16.766Z,10.17
2023-12-04T12:54:46.831Z,10.07
2023-12-04T12:57:20.245Z,11.07
2023-12-04T12:59:53.268Z,10.33
2023-12-04T13:02:24.211Z,12.30
2023-12-04T13:04:58.426Z,11.50
2023-12-04T13:07:27.302Z,10.60
2023-12-04T13:09:56.326Z,12.10
2023-12-04T13:12:31.674Z,10.33
2023-12-04T13:15:03.238Z,11.33
2023-12-04T13:17:32.999Z,11.67
2023-12-04T13:20:02.063Z,11.10
2023-12-04T13:22:33.957Z,12.17
2023-12-04T13:25:13.812Z,10.03
2023-12-04T13:27:56.063Z,11.87
2023-12-04T13:30:26.292Z,10.40
2023-12-04T13:32:57.378Z,9.60
2023-12-04T13:35:37.461Z,10.57
2023-12-04T13:38:15.296Z,11.20
2023-12-04T13:40:56.173Z,10.90
2023-12-04T13:43:52.431Z,10.13
2023-12-04T13:46:22.156Z,9.17
2023-12-04T13:48:53.975Z,10.57
2023-12-04T13:51:31.665Z,11.20
2023-12-04T13:54:21.899Z,9.43
2023-12-04T13:57:05.165Z,10.57
2023-12-04T13:59:41.068Z,10.40
2023-12-04T14:02:16.109Z,10.10
2023-12-04T14:04:45.933Z,10.00
2023-12-04T14:07:18.043Z,9.50
2023-12-04T14:09:49.608Z,9.47
2023-12-04T14:12:19.364Z,8.70
2023-12-04T14:15:00.005Z,8.93
2023-12-04T14:17:29.123Z,9.93
2023-12-04T14:20:01.189Z,9.90
2023-12-04T14:22:32.103Z,9.80
2023-12-04T14:25:09.856Z,8.97
2023-12-04T14:27:41.644Z,9.00
2023-12-04T14:30:17.188Z,9.43
2023-12-04T14:32:48.379Z,8.43
2023-12-04T14:35:29.904Z,9.30
2023-12-04T14:38:00.218Z,9.63
2023-12-04T14:40:31.731Z,10.10
2023-12-04T14:43:05.661Z,9.80
2023-12-04T14:45:38.278Z,9.27
2023-12-04T14:48:19.922Z,9.10
2023-12-04T14:51:02.417Z,10.33
2023-12-04T14:53:48.637Z,9.77
2023-12-04T14:56:34.325Z,10.20
2023-12-04T14:59:20.410Z,10.73
2023-12-04T15:02:11.945Z,11.47
2023-12-04T15:05:14.027Z,10.70
2023-12-04T15:08:04.410Z,9.83
2023-12-04T15:13:46.589Z,10.03
2023-12-04T15:16:31.036Z,10.07
2023-12-04T15:19:36.758Z,10.00
2023-12-04T15:22:14.026Z,10.37
2023-12-04T15:24:42.336Z,10.43
2023-12-04T15:27:16.074Z,10.30
2023-12-04T15:29:47.081Z,7.77
2023-12-04T15:32:22.519Z,10.07
2023-12-04T15:35:10.905Z,10.20
2023-12-04T15:37:43.578Z,9.67
2023-12-04T15:40:20.866Z,10.47
2023-12-04T15:42:52.820Z,10.63
2023-12-04T15:45:23.353Z,8.70
2023-12-04T15:47:53.547Z,9.97
2023-12-04T15:50:26.099Z,8.93
2023-12-04T15:52:57.170Z,8.93
2023-12-04T15:55:27.480Z,9.23
2023-12-04T15:57:59.441Z,8.90
2023-12-04T16:00:34.936Z,9.57
2023-12-04T16:03:11.895Z,8.90
2023-12-04T16:05:46.601Z,9.30
2023-12-04T16:08:17.427Z,9.73
2023-12-04T16:10:47.745Z,9.50
2023-12-04T16:13:17.480Z,9.50
2023-12-04T16:15:59.101Z,9.70
2023-12-04T16:18:30.449Z,8.60
2023-12-04T16:21:02.770Z,8.70
2023-12-04T16:23:39.472Z,10.00
2023-12-04T16:26:12.994Z,8.80
2023-12-04T16:28:44.241Z,9.30
2023-12-04T16:31:25.536Z,9.30
2023-12-04T16:33:56.761Z,8.33
2023-12-04T16:36:35.539Z,8.23
2023-12-04T16:39:06.802Z,8.43
2023-12-04T16:41:41.121Z,8.20
2023-12-04T16:44:17.464Z,9.00
2023-12-04T16:46:50.803Z,8.17
2023-12-04T16:49:21.404Z,6.83
2023-12-04T16:52:16.278Z,8.00
2023-12-04T16:54:52.930Z,7.70
2023-12-04T16:57:31.432Z,8.47
2023-12-04T17:00:04.757Z,7.50
2023-12-04T17:02:35.775Z,8.30
2023-12-04T17:05:10.076Z,7.77
2023-12-04T17:07:44.538Z,8.17
2023-12-04T17:10:19.248Z,7.50
2023-12-04T17:12:49.793Z,7.00
2023-12-04T17:15:19.752Z,8.40
2023-12-04T17:17:57.256Z,8.10
2023-12-04T17:20:26.736Z,8.77
2023-12-04T17:23:09.031Z,8.23
2023-12-04T17:25:46.012Z,8.40
2023-12-04T17:28:16.545Z,8.97
2023-12-04T17:30:48.341Z,8.87
2023-12-04T17:33:19.242Z,10.03
2023-12-04T17:35:53.484Z,9.67
2023-12-04T17:38:35.411Z,9.27
2023-12-04T17:41:09.973Z,7.53
2023-12-04T17:43:40.501Z,7.43
2023-12-04T17:46:12.529Z,7.83
2023-12-04T17:48:45.281Z,7.47
2023-12-04T17:51:19.654Z,7.80
2023-12-04T17:53:57.576Z,8.50
2023-12-04T17:56:39.957Z,9.43
2023-12-04T17:59:20.287Z,8.00
2023-12-04T18:01:54.791Z,8.63
2023-12-04T18:04:25.979Z,7.70
2023-12-04T18:07:06.641Z,8.53
2023-12-04T18:09:45.773Z,8.10
2023-12-04T18:12:19.326Z,8.77
2023-12-04T18:15:02.550Z,8.93
2023-12-04T18:17:39.026Z,7.07
2023-12-04T18:20:08.982Z,8.60
2023-12-04T18:22:43.772Z,8.73
2023-12-04T18:25:32.562Z,7.63
2023-12-04T18:28:04.515Z,8.60
2023-12-04T18:30:40.202Z,9.00
2023-12-04T18:33:15.982Z,8.77
2023-12-04T18:36:00.041Z,8.43
2023-12-04T18:38:38.972Z,9.53
2023-12-04T18:41:15.197Z,8.47
2023-12-04T18:43:53.351Z,8.70
2023-12-04T18:46:30.485Z,8.50
2023-12-04T18:49:00.273Z,8.17
2023-12-04T18:51:38.978Z,8.87
2023-12-04T18:54:10.297Z,8.67
2023-12-04T18:56:48.758Z,8.27
2023-12-04T18:59:19.540Z,7.87
2023-12-04T19:01:54.780Z,7.70
2023-12-04T19:04:26.568Z,8.00
2023-12-04T19:07:02.746Z,9.10
2023-12-04T19:09:34.699Z,8.90
2023-12-04T19:12:14.847Z,8.67
2023-12-04T19:14:55.882Z,8.73
2023-12-04T19:17:32.072Z,8.63
2023-12-04T19:20:11.369Z,7.50
2023-12-04T19:25:49.256Z,9.20
2023-12-04T19:28:42.533Z,9.07
2023-12-04T19:31:21.610Z,9.27
2023-12-04T19:34:01.737Z,8.77
2023-12-04T19:36:44.074Z,8.80
2023-12-04T19:39:28.066Z,8.63
2023-12-04T19:42:11.823Z,9.40
2023-12-04T19:44:51.308Z,7.47
2023-12-04T19:47:36.201Z,9.60
2023-12-04T19:50:15.000Z,8.27
2023-12-04T19:52:51.347Z,8.37
2023-12-04T19:55:25.753Z,8.67
2023-12-04T19:58:02.315Z,8.23
2023-12-04T20:00:47.042Z,7.70
2023-12-04T20:03:32.999Z,9.03
2023-12-04T20:06:05.533Z,8.80
2023-12-04T20:08:55.944Z,9.00
2023-12-04T20:11:29.754Z,9.17
2023-12-04T20:14:17.668Z,8.07
2023-12-04T20:16:56.158Z,9.30
2023-12-04T20:19:31.709Z,9.80
2023-12-04T20:22:14.751Z,9.47
2023-12-04T20:24:49.254Z,7.90
2023-12-04T20:27:39.125Z,9.23
2023-12-04T20:30:16.199Z,8.90
2023-12-04T20:33:04.068Z,8.33
2023-12-04T20:35:40.157Z,8.80
2023-12-04T20:38:21.056Z,9.20
2023-12-04T20:41:01.258Z,8.77
2023-12-04T20:43:40.413Z,8.83
2023-12-04T20:46:17.660Z,9.23
2023-12-04T20:48:54.562Z,9.43
2023-12-04T20:51:33.460Z,8.40
2023-12-04T20:54:16.198Z,10.27
2023-12-04T20:56:50.202Z,9.17
2023-12-04T20:59:20.227Z,9.17
2023-12-04T21:01:53.821Z,9.80
2023-12-04T21:04:36.692Z,9.37
2023-12-04T21:07:15.151Z,10.03
2023-12-04T21:09:54.469Z,10.40
2023-12-04T21:12:37.310Z,10.10
2023-12-04T21:15:14.307Z,9.77
2023-12-04T21:17:46.916Z,9.63
2023-12-04T21:20:29.540Z,9.90
2023-12-04T21:23:02.383Z,10.10
2023-12-04T21:25:34.526Z,11.07
2023-12-04T21:28:07.143Z,10.60
2023-12-04T21:30:45.847Z,9.67
2023-12-04T21:33:26.582Z,10.17
2023-12-04T21:36:20.262Z,9.60
2023-12-04T21:38:54.829Z,10.67
2023-12-04T21:41:40.670Z,9.60
2023-12-04T21:44:25.653Z,10.53
2023-12-04T21:46:57.204Z,10.27
2023-12-04T21:49:27.652Z,10.80
2023-12-04T21:52:01.445Z,10.70
2023-12-04T21:54:33.211Z,11.73
2023-12-04T21:57:11.390Z,11.87
2023-12-04T22:00:01.862Z,12.27
2023-12-04T22:02:37.294Z,11.30
2023-12-04T22:05:06.699Z,11.80
2023-12-04T22:07:49.060Z,11.43
2023-12-04T22:10:17.616Z,11.13
2023-12-04T22:12:51.128Z,12.10
2023-12-04T22:15:19.950Z,12.03
2023-12-04T22:17:55.481Z,11.63
2023-12-04T22:20:25.853Z,12.13
2023-12-04T22:23:14.040Z,11.90
2023-12-04T22:25:43.562Z,12.13
2023-12-04T22:28:16.134Z,14.20
2023-12-04T22:30:53.887Z,12.63
2023-12-04T22:33:28.214Z,13.03
2023-12-04T22:36:00.793Z,13.10
2023-12-04T22:38:43.222Z,12.43
2023-12-04T22:41:22.994Z,12.27
2023-12-04T22:44:04.183Z,12.47
2023-12-04T22:46:49.729Z,12.13
2023-12-04T22:49:30.377Z,12.60
2023-12-04T22:52:02.195Z,13.00
2023-12-04T22:54:45.056Z,13.40
2023-12-04T22:59:59.685Z,13.90
2023-12-04T23:02:31.650Z,13.63
2023-12-04T23:05:08.300Z,13.57
2023-12-04T23:07:43.256Z,12.53
2023-12-04T23:10:23.797Z,14.60
2023-12-04T23:13:01.330Z,13.00
2023-12-04T23:15:41.451Z,14.30
2023-12-04T23:18:11.034Z,13.10
2023-12-04T23:20:41.420Z,12.90
2023-12-04T23:23:09.441Z,12.70
2023-12-04T23:25:55.172Z,14.43
2023-12-04T23:28:25.948Z,14.50
2023-12-04T23:30:54.759Z,14.20
2023-12-04T23:33:29.559Z,14.50
2023-12-04T23:36:06.043Z,15.37
2023-12-04T23:38:38.679Z,15.53
2023-12-04T23:41:25.272Z,16.87
2023-12-04T23:43:56.447Z,14.17
2023-12-04T23:46:29.753Z,14.30
2023-12-04T23:49:06.083Z,14.17
2023-12-04T23:51:41.194Z,15.27
2023-12-04T23:54:22.208Z,13.83
2023-12-04T23:57:05.816Z,15.17
2023-12-04T23:59:53.008Z,14.50
